createdAt,value
2018-09-08T00:00:07.464Z,1.60
2018-09-08T00:02:35.957Z,1.93
2018-09-08T00:05:06.757Z,1.67
2018-09-08T00:07:36.565Z,1.97
2018-09-08T00:10:10.981Z,1.90
2018-09-08T00:12:39.927Z,2.10
2018-09-08T00:15:26.401Z,2.20
2018-09-08T00:18:00.769Z,1.90
2018-09-08T00:20:34.849Z,2.00
2018-09-08T00:25:55.278Z,2.10
2018-09-08T00:28:30.788Z,2.00
2018-09-08T00:31:00.397Z,1.77
2018-09-08T00:33:29.378Z,1.70
2018-09-08T00:35:58.017Z,1.53
2018-09-08T00:38:27.302Z,1.53
2018-09-08T00:40:56.276Z,1.70
2018-09-08T00:43:27.075Z,2.03
2018-09-08T00:45:56.336Z,1.63
2018-09-08T00:48:28.829Z,1.40
2018-09-08T00:50:58.044Z,1.40
2018-09-08T00:53:39.328Z,2.00
2018-09-08T00:56:08.598Z,1.67
2018-09-08T00:58:37.616Z,1.70
2018-09-08T01:01:06.574Z,1.67
2018-09-08T01:03:35.974Z,1.90
2018-09-08T01:06:04.480Z,1.60
2018-09-08T01:08:38.351Z,1.87
2018-09-08T01:11:07.115Z,1.70
2018-09-08T01:13:41.571Z,1.90
2018-09-08T01:16:10.117Z,2.30
2018-09-08T01:18:42.897Z,2.03
2018-09-08T01:21:11.393Z,2.20
2018-09-08T01:23:45.030Z,2.00
2018-09-08T01:26:13.562Z,2.33
2018-09-08T01:28:42.172Z,2.27
2018-09-08T01:31:11.155Z,1.70
2018-09-08T01:33:40.107Z,2.23
2018-09-08T01:36:09.386Z,1.80
2018-09-08T01:38:38.313Z,2.03
2018-09-08T01:41:07.298Z,2.10
2018-09-08T01:43:36.222Z,1.90
2018-09-08T01:46:05.406Z,2.00
2018-09-08T01:48:34.169Z,2.27
2018-09-08T01:51:04.390Z,2.10
2018-09-08T01:53:33.382Z,2.10
2018-09-08T01:56:07.015Z,2.00
2018-09-08T01:58:35.948Z,2.20
2018-09-08T02:01:11.686Z,2.17
2018-09-08T02:03:40.955Z,2.10
2018-09-08T02:06:13.369Z,2.30
2018-09-08T02:08:42.361Z,2.63
2018-09-08T02:11:14.725Z,2.33
2018-09-08T02:13:43.998Z,2.27
2018-09-08T02:16:16.670Z,2.07
2018-09-08T02:18:45.947Z,2.13
2018-09-08T02:21:27.853Z,1.83
2018-09-08T02:23:56.631Z,2.97
2018-09-08T02:26:25.256Z,2.27
2018-09-08T02:28:54.286Z,2.60
2018-09-08T02:31:24.079Z,2.73
2018-09-08T02:33:53.010Z,2.60
2018-09-08T02:36:34.393Z,2.40
2018-09-08T02:39:03.441Z,2.40
2018-09-08T02:41:32.390Z,2.57
2018-09-08T02:44:00.884Z,3.07
2018-09-08T02:46:31.531Z,2.97
2018-09-08T02:49:00.086Z,2.60
2018-09-08T02:51:32.529Z,2.20
2018-09-08T02:54:00.327Z,2.53
2018-09-08T02:56:28.156Z,3.10
2018-09-08T02:58:55.710Z,2.37
2018-09-08T03:01:23.736Z,2.30
2018-09-08T03:03:51.273Z,2.70
2018-09-08T03:06:19.083Z,2.23
2018-09-08T03:08:46.887Z,2.50
2018-09-08T03:11:14.688Z,2.23
2018-09-08T03:13:45.771Z,2.80
2018-09-08T03:16:13.807Z,3.77
2018-09-08T03:18:45.816Z,3.17
2018-09-08T03:21:13.369Z,2.77
2018-09-08T03:23:41.417Z,3.07
2018-09-08T03:26:08.962Z,2.83
2018-09-08T03:28:36.507Z,2.90
2018-09-08T03:31:04.537Z,3.27
2018-09-08T03:33:32.358Z,3.30
2018-09-08T03:35:59.977Z,3.00
2018-09-08T03:38:27.762Z,2.90
2018-09-08T03:41:00.224Z,2.80
2018-09-08T03:43:27.773Z,2.57
2018-09-08T03:45:55.310Z,2.83
2018-09-08T03:48:23.113Z,2.73
2018-09-08T03:50:50.941Z,2.77
2018-09-08T03:53:18.781Z,2.90
2018-09-08T03:55:46.341Z,2.80
2018-09-08T03:58:14.141Z,2.60
2018-09-08T04:00:41.704Z,2.50
2018-09-08T04:03:14.228Z,2.90
2018-09-08T04:05:43.292Z,2.90
2018-09-08T04:08:16.329Z,3.10
2018-09-08T04:10:45.599Z,2.90
2018-09-08T04:13:18.805Z,2.77
2018-09-08T04:15:47.745Z,2.73
2018-09-08T04:18:20.622Z,2.67
2018-09-08T04:20:49.578Z,2.50
2018-09-08T04:23:24.237Z,2.80
2018-09-08T04:25:53.206Z,2.60
2018-09-08T04:28:34.222Z,2.80
2018-09-08T04:31:04.412Z,2.83
2018-09-08T04:33:33.897Z,3.40
2018-09-08T04:36:03.624Z,2.43
2018-09-08T04:38:33.064Z,2.70
2018-09-08T04:41:02.038Z,3.10
2018-09-08T04:43:34.929Z,2.40
2018-09-08T04:46:04.197Z,2.23
2018-09-08T04:48:36.961Z,2.60
2018-09-08T04:51:06.109Z,2.50
2018-09-08T04:53:40.182Z,2.50
2018-09-08T04:56:08.701Z,2.60
2018-09-08T04:58:42.521Z,3.13
2018-09-08T05:01:11.324Z,2.87
2018-09-08T05:03:44.813Z,2.47
2018-09-08T05:06:13.304Z,3.00
2018-09-08T05:08:48.878Z,3.03
2018-09-08T05:11:17.389Z,2.80
2018-09-08T05:13:58.237Z,2.97
2018-09-08T05:16:27.488Z,3.33
2018-09-08T05:18:56.440Z,3.00
2018-09-08T05:21:25.377Z,4.03
2018-09-08T05:23:56.622Z,3.03
2018-09-08T05:26:25.545Z,3.50
2018-09-08T05:29:06.552Z,3.73
2018-09-08T05:31:35.767Z,3.30
2018-09-08T05:34:04.351Z,3.30
2018-09-08T05:36:33.305Z,2.90
2018-09-08T05:39:04.119Z,3.07
2018-09-08T05:41:33.085Z,3.33
2018-09-08T05:44:08.666Z,3.13
2018-09-08T05:46:37.621Z,3.87
2018-09-08T05:49:19.602Z,3.30
2018-09-08T05:51:48.841Z,3.10
2018-09-08T05:54:17.342Z,3.20
2018-09-08T05:56:46.299Z,3.50
2018-09-08T05:59:16.097Z,3.30
2018-09-08T06:01:44.593Z,2.93
2018-09-08T06:04:18.858Z,2.70
2018-09-08T06:06:47.592Z,2.77
2018-09-08T06:09:28.806Z,2.90
2018-09-08T06:11:58.117Z,3.37
2018-09-08T06:14:26.597Z,3.03
2018-09-08T06:16:55.639Z,2.80
2018-09-08T06:19:25.884Z,2.97
2018-09-08T06:21:54.402Z,4.67
2018-09-08T06:24:27.307Z,3.60
2018-09-08T06:26:56.288Z,3.10
2018-09-08T06:29:29.719Z,3.33
2018-09-08T06:31:58.276Z,2.80
2018-09-08T06:34:33.070Z,4.90
2018-09-08T06:37:01.557Z,2.57
2018-09-08T06:39:43.794Z,3.17
2018-09-08T06:42:19.430Z,3.03
2018-09-08T06:44:48.438Z,2.40
2018-09-08T06:47:17.706Z,2.67
2018-09-08T06:49:46.665Z,3.40
2018-09-08T06:52:15.675Z,2.43
2018-09-08T06:54:44.918Z,2.37
2018-09-08T06:57:13.866Z,2.40
2018-09-08T06:59:46.060Z,2.60
2018-09-08T07:02:14.879Z,2.30
2018-09-08T07:04:55.630Z,1.93
2018-09-08T07:07:24.133Z,2.77
2018-09-08T07:09:52.631Z,2.23
2018-09-08T07:12:21.114Z,2.03
2018-09-08T07:14:54.297Z,1.97
2018-09-08T07:17:22.797Z,2.03
2018-09-08T07:19:56.624Z,2.27
2018-09-08T07:22:25.709Z,1.90
2018-09-08T07:24:59.680Z,2.60
2018-09-08T07:27:28.953Z,2.17
2018-09-08T07:30:02.311Z,2.00
2018-09-08T07:32:31.370Z,1.67
2018-09-08T07:35:05.248Z,1.67
2018-09-08T07:37:33.737Z,1.57
2018-09-08T07:40:03.188Z,1.70
2018-09-08T07:42:33.029Z,1.67
2018-09-08T07:45:02.013Z,1.47
2018-09-08T07:47:30.971Z,2.33
2018-09-08T07:50:00.198Z,1.70
2018-09-08T07:52:29.147Z,1.60
2018-09-08T07:54:58.125Z,1.70
2018-09-08T07:57:26.917Z,1.57
2018-09-08T07:59:55.917Z,1.40
2018-09-08T08:02:24.441Z,1.50
2018-09-08T08:04:53.857Z,1.80
2018-09-08T08:07:24.130Z,1.60
2018-09-08T08:09:52.633Z,1.83
2018-09-08T08:12:34.735Z,1.53
2018-09-08T08:15:03.750Z,1.63
2018-09-08T08:17:32.525Z,1.30
2018-09-08T08:20:01.502Z,1.57
2018-09-08T08:22:32.319Z,1.67
2018-09-08T08:25:01.628Z,1.67
2018-09-08T08:27:34.791Z,1.50
2018-09-08T08:30:03.289Z,1.37
2018-09-08T08:32:44.782Z,1.60
2018-09-08T08:35:13.797Z,1.60
2018-09-08T08:37:43.065Z,1.40
2018-09-08T08:40:12.041Z,1.40
2018-09-08T08:42:42.414Z,1.57
2018-09-08T08:45:10.940Z,1.80
2018-09-08T08:47:52.077Z,1.70
2018-09-08T08:50:32.201Z,1.40
2018-09-08T08:53:06.068Z,1.53
2018-09-08T08:55:35.459Z,1.47
2018-09-08T08:58:03.973Z,1.80
2018-09-08T09:00:32.491Z,2.00
2018-09-08T09:03:01.390Z,2.13
2018-09-08T09:05:29.913Z,2.00
2018-09-08T09:07:58.953Z,1.83
2018-09-08T09:10:28.213Z,1.70
2018-09-08T09:13:09.858Z,1.57
2018-09-08T09:15:39.085Z,1.47
2018-09-08T09:18:08.094Z,1.80
2018-09-08T09:20:41.997Z,1.70
2018-09-08T09:24:26.266Z,1.70
2018-09-08T09:26:55.061Z,1.70
2018-09-08T09:29:23.840Z,1.40
2018-09-08T09:31:52.807Z,1.67
2018-09-08T09:34:21.813Z,1.63
2018-09-08T09:36:50.609Z,1.73
2018-09-08T09:39:19.590Z,1.50
2018-09-08T09:41:48.689Z,2.07
2018-09-08T09:44:20.955Z,1.60
2018-09-08T09:46:49.971Z,1.63
2018-09-08T09:49:24.637Z,1.87
2018-09-08T09:51:54.109Z,1.83
2018-09-08T09:54:27.685Z,1.60
2018-09-08T09:56:57.350Z,1.30
2018-09-08T09:59:31.222Z,1.40
2018-09-08T10:02:08.401Z,1.57
2018-09-08T10:04:37.510Z,1.50
2018-09-08T10:07:10.969Z,1.50
2018-09-08T10:09:41.245Z,1.40
2018-09-08T10:12:09.843Z,1.60
2018-09-08T10:14:41.553Z,1.57
2018-09-08T10:17:10.501Z,1.47
2018-09-08T10:19:43.772Z,1.40
2018-09-08T10:22:13.323Z,1.50
2018-09-08T10:24:46.437Z,1.53
2018-09-08T10:27:15.462Z,1.60
2018-09-08T10:29:57.062Z,1.47
2018-09-08T10:32:26.092Z,1.50
2018-09-08T10:34:55.137Z,1.30
2018-09-08T10:37:23.998Z,1.60
2018-09-08T10:40:06.131Z,1.17
2018-09-08T10:42:35.581Z,1.73
2018-09-08T10:45:04.242Z,1.23
2018-09-08T10:47:33.206Z,1.57
2018-09-08T10:50:05.951Z,1.47
2018-09-08T10:52:35.665Z,1.60
2018-09-08T10:55:07.246Z,1.50
2018-09-08T10:57:35.728Z,1.50
2018-09-08T11:00:10.992Z,1.60
2018-09-08T11:02:40.599Z,1.60
2018-09-08T11:05:14.019Z,1.77
2018-09-08T11:07:42.960Z,1.40
2018-09-08T11:10:16.949Z,1.23
2018-09-08T11:12:45.884Z,1.57
2018-09-08T11:15:18.856Z,1.90
2018-09-08T11:17:47.648Z,1.50
2018-09-08T11:20:21.156Z,1.90
2018-09-08T11:22:50.157Z,1.43
2018-09-08T11:25:23.861Z,1.67
2018-09-08T11:27:52.409Z,1.50
2018-09-08T11:30:21.406Z,1.50
2018-09-08T11:32:50.640Z,1.30
2018-09-08T11:35:19.698Z,1.60
2018-09-08T11:37:48.733Z,1.70
2018-09-08T11:40:17.506Z,1.60
2018-09-08T11:42:46.472Z,1.60
2018-09-08T11:45:15.521Z,1.70
2018-09-08T11:47:44.301Z,1.80
2018-09-08T11:50:13.262Z,2.00
2018-09-08T11:52:43.778Z,1.90
2018-09-08T11:55:13.018Z,1.97
2018-09-08T11:57:48.569Z,1.70
2018-09-08T12:00:17.542Z,2.20
2018-09-08T12:03:02.885Z,1.90
2018-09-08T12:05:31.394Z,1.97
2018-09-08T12:08:00.703Z,1.83
2018-09-08T12:10:29.257Z,1.97
2018-09-08T12:12:57.769Z,1.77
2018-09-08T12:15:26.720Z,1.80
2018-09-08T12:17:59.656Z,1.53
2018-09-08T12:20:28.641Z,1.93
2018-09-08T12:23:01.365Z,1.67
2018-09-08T12:25:30.334Z,1.63
2018-09-08T12:27:58.832Z,1.53
2018-09-08T12:30:27.672Z,1.47
2018-09-08T12:32:56.648Z,2.07
2018-09-08T12:35:25.213Z,1.67
2018-09-08T12:37:54.172Z,1.70
2018-09-08T12:40:23.173Z,1.90
2018-09-08T12:42:51.681Z,1.80
2018-09-08T12:45:20.753Z,1.63
2018-09-08T12:47:49.277Z,1.77
2018-09-08T12:50:20.563Z,1.60
2018-09-08T12:52:49.369Z,2.00
2018-09-08T12:55:23.045Z,1.67
2018-09-08T12:57:51.525Z,1.70
2018-09-08T13:00:24.571Z,1.83
2018-09-08T13:02:53.530Z,1.80
2018-09-08T13:05:22.546Z,1.70
2018-09-08T13:07:52.915Z,1.67
2018-09-08T13:10:21.438Z,2.10
2018-09-08T13:12:50.390Z,1.90
2018-09-08T13:15:19.882Z,1.87
2018-09-08T13:17:48.881Z,1.93
2018-09-08T13:20:17.846Z,1.60
2018-09-08T13:22:46.645Z,2.03
2018-09-08T13:25:15.668Z,1.70
2018-09-08T13:27:45.810Z,1.70
2018-09-08T13:30:15.428Z,1.80
2018-09-08T13:32:47.275Z,1.50
2018-09-08T13:35:16.370Z,1.63
2018-09-08T13:37:50.881Z,1.90
2018-09-08T13:40:19.926Z,1.80
2018-09-08T13:42:53.978Z,1.67
2018-09-08T13:45:23.235Z,1.50
2018-09-08T13:47:56.220Z,1.43
2018-09-08T13:50:24.746Z,1.70
2018-09-08T13:52:58.349Z,1.57
2018-09-08T13:55:26.989Z,1.50
2018-09-08T13:57:55.472Z,1.53
2018-09-08T14:00:24.410Z,1.60
2018-09-08T14:02:53.354Z,1.97
2018-09-08T14:05:22.431Z,1.63
2018-09-08T14:07:52.801Z,1.70
2018-09-08T14:10:21.314Z,1.60
2018-09-08T14:12:49.805Z,1.60
2018-09-08T14:15:19.109Z,1.40
2018-09-08T14:17:47.629Z,1.73
2018-09-08T14:20:19.390Z,1.63
2018-09-08T14:22:48.224Z,1.60
2018-09-08T14:25:21.271Z,1.53
2018-09-08T14:27:50.250Z,2.40
2018-09-08T14:30:23.721Z,1.60
2018-09-08T14:32:52.814Z,1.93
2018-09-08T14:35:24.606Z,1.60
2018-09-08T14:37:54.726Z,1.70
2018-09-08T14:40:23.244Z,1.50
2018-09-08T14:42:51.746Z,1.70
2018-09-08T14:45:20.565Z,1.60
2018-09-08T14:47:49.129Z,1.63
2018-09-08T14:50:17.638Z,1.80
2018-09-08T14:52:46.748Z,1.27
2018-09-08T14:55:15.257Z,1.10
2018-09-08T14:57:44.455Z,1.40
2018-09-08T15:00:13.545Z,1.37
2018-09-08T15:02:44.590Z,1.80
2018-09-08T15:05:13.146Z,1.67
2018-09-08T15:07:46.948Z,1.20
2018-09-08T15:10:15.953Z,1.83
2018-09-08T15:15:20.444Z,1.40
2018-09-08T15:17:53.453Z,1.70
2018-09-08T15:20:22.052Z,1.53
2018-09-08T15:22:50.768Z,1.90
2018-09-08T15:25:19.457Z,1.93
2018-09-08T15:27:48.757Z,2.47
2018-09-08T15:30:17.730Z,1.87
2018-09-08T15:32:47.114Z,2.47
2018-09-08T15:35:21.614Z,2.07
2018-09-08T15:37:50.136Z,1.70
2018-09-08T15:40:19.458Z,1.87
2018-09-08T15:42:48.314Z,1.70
2018-09-08T15:45:17.328Z,1.60
2018-09-08T15:47:46.450Z,1.87
2018-09-08T15:50:15.707Z,2.00
2018-09-08T15:52:44.674Z,1.63
2018-09-08T15:55:17.450Z,3.57
2018-09-08T15:57:46.701Z,3.00
2018-09-08T16:00:19.469Z,2.03
2018-09-08T16:02:48.466Z,1.47
2018-09-08T16:05:17.824Z,1.33
2018-09-08T16:07:46.785Z,2.40
2018-09-08T16:10:15.301Z,1.70
2018-09-08T16:12:44.533Z,1.50
2018-09-08T16:15:13.498Z,1.57
2018-09-08T16:17:44.593Z,1.80
2018-09-08T16:20:15.029Z,1.60
2018-09-08T16:22:43.545Z,1.73
2018-09-08T16:25:12.534Z,1.33
2018-09-08T16:27:41.319Z,1.40
2018-09-08T16:30:09.846Z,1.17
2018-09-08T16:32:43.191Z,1.50
2018-09-08T16:35:12.009Z,1.43
2018-09-08T16:37:44.766Z,1.60
2018-09-08T16:40:13.337Z,1.63
2018-09-08T16:42:42.997Z,1.60
2018-09-08T16:45:12.139Z,1.63
2018-09-08T16:47:40.658Z,1.67
2018-09-08T16:50:09.948Z,1.77
2018-09-08T16:52:39.043Z,1.70
2018-09-08T16:55:07.464Z,1.77
2018-09-08T16:57:48.631Z,1.70
2018-09-08T17:00:17.653Z,1.80
2018-09-08T17:02:46.601Z,1.80
2018-09-08T17:05:15.407Z,1.83
2018-09-08T17:07:44.409Z,1.63
2018-09-08T17:10:12.893Z,1.73
2018-09-08T17:12:42.245Z,1.53
2018-09-08T17:15:11.565Z,1.50
2018-09-08T17:17:40.063Z,1.87
2018-09-08T17:20:13.858Z,1.53
2018-09-08T17:22:42.413Z,1.90
2018-09-08T17:27:44.665Z,1.40
2018-09-08T17:30:13.729Z,1.80
2018-09-08T17:32:43.221Z,1.37
2018-09-08T17:35:12.643Z,1.97
2018-09-08T17:37:41.611Z,1.60
2018-09-08T17:40:10.113Z,1.57
2018-09-08T17:42:39.251Z,1.73
2018-09-08T17:45:08.243Z,1.50
2018-09-08T17:47:37.347Z,1.93
2018-09-08T17:50:07.730Z,2.07
2018-09-08T17:52:36.805Z,2.40
2018-09-08T17:55:05.640Z,1.80
2018-09-08T17:57:38.285Z,1.80
2018-09-08T18:00:06.813Z,2.17
2018-09-08T18:02:40.137Z,1.97
2018-09-08T18:05:09.381Z,2.30
2018-09-08T18:07:42.408Z,1.97
2018-09-08T18:10:10.941Z,2.37
2018-09-08T18:12:39.471Z,1.97
2018-09-08T18:15:08.956Z,2.13
2018-09-08T18:17:37.973Z,2.63
2018-09-08T18:20:06.649Z,2.53
2018-09-08T18:22:36.028Z,2.10
2018-09-08T18:25:04.582Z,2.47
2018-09-08T18:27:33.135Z,3.40
2018-09-08T18:30:07.218Z,3.40
2018-09-08T18:32:36.038Z,4.70
2018-09-08T18:35:04.709Z,3.10
2018-09-08T18:37:33.950Z,2.63
2018-09-08T18:40:05.583Z,2.80
2018-09-08T18:42:34.874Z,2.93
2018-09-08T18:45:08.884Z,2.87
2018-09-08T18:47:37.411Z,2.30
2018-09-08T18:50:11.327Z,2.30
2018-09-08T18:52:41.113Z,3.57
2018-09-08T18:55:13.627Z,2.47
2018-09-08T18:57:42.145Z,2.53
2018-09-08T19:00:14.375Z,2.60
2018-09-08T19:02:43.905Z,2.13
2018-09-08T19:05:12.935Z,8.33
2018-09-08T19:07:41.944Z,9.33
2018-09-08T19:10:10.976Z,7.20
2018-09-08T19:12:39.781Z,5.53
2018-09-08T19:15:15.168Z,4.10
2018-09-08T19:17:43.749Z,3.43
2018-09-08T19:20:18.216Z,3.07
2018-09-08T19:22:47.498Z,2.83
2018-09-08T19:25:16.496Z,2.30
2018-09-08T19:27:45.032Z,2.60
2018-09-08T19:30:13.529Z,3.07
2018-09-08T19:32:42.795Z,2.60
2018-09-08T19:35:17.144Z,2.50
2018-09-08T19:37:46.263Z,2.93
2018-09-08T19:40:20.050Z,3.07
2018-09-08T19:42:49.228Z,3.00
2018-09-08T19:45:18.503Z,3.47
2018-09-08T19:47:53.666Z,3.00
2018-09-08T19:50:22.687Z,2.80
2018-09-08T19:52:57.622Z,2.63
2018-09-08T19:55:26.123Z,3.30
2018-09-08T19:58:00.554Z,3.00
2018-09-08T20:00:29.821Z,2.97
2018-09-08T20:02:59.436Z,2.53
2018-09-08T20:05:28.493Z,2.67
2018-09-08T20:08:10.076Z,3.10
2018-09-08T20:10:39.143Z,2.90
2018-09-08T20:13:07.656Z,2.67
2018-09-08T20:15:36.664Z,3.73
2018-09-08T20:18:07.853Z,3.40
2018-09-08T20:20:37.137Z,3.10
2018-09-08T20:23:10.532Z,3.10
2018-09-08T20:25:39.064Z,3.10
2018-09-08T20:28:11.885Z,4.80
2018-09-08T20:30:41.822Z,3.90
2018-09-08T20:33:10.802Z,3.60
2018-09-08T20:35:39.310Z,3.43
2018-09-08T20:38:08.097Z,3.87
2018-09-08T20:40:37.073Z,3.77
2018-09-08T20:43:05.625Z,3.57
2018-09-08T20:45:34.862Z,3.53
2018-09-08T20:48:03.826Z,3.97
2018-09-08T20:50:32.802Z,3.03
2018-09-08T20:53:01.585Z,3.33
2018-09-08T20:55:32.298Z,3.60
2018-09-08T20:58:00.788Z,3.37
2018-09-08T21:00:42.686Z,4.50
2018-09-08T21:03:11.165Z,3.20
2018-09-08T21:05:40.460Z,3.27
2018-09-08T21:08:08.969Z,3.87
2018-09-08T21:10:41.389Z,3.67
2018-09-08T21:13:10.652Z,4.07
2018-09-08T21:15:42.797Z,3.43
2018-09-08T21:18:11.757Z,3.50
2018-09-08T21:20:48.769Z,3.47
2018-09-08T21:23:17.265Z,3.30
2018-09-08T21:25:50.141Z,3.20
2018-09-08T21:28:19.093Z,3.37
2018-09-08T21:30:51.784Z,3.33
2018-09-08T21:33:20.304Z,3.13
2018-09-08T21:35:54.921Z,2.83
2018-09-08T21:38:23.462Z,3.23
2018-09-08T21:40:57.665Z,3.60
2018-09-08T21:43:26.762Z,3.40
2018-09-08T21:45:59.318Z,4.13
2018-09-08T21:48:27.831Z,3.47
2018-09-08T21:51:01.211Z,3.30
2018-09-08T21:53:30.029Z,3.20
2018-09-08T21:56:03.778Z,3.60
2018-09-08T21:58:32.273Z,3.70
2018-09-08T22:01:07.625Z,3.50
2018-09-08T22:03:36.593Z,3.27
2018-09-08T22:06:10.726Z,3.23
2018-09-08T22:08:40.181Z,3.27
2018-09-08T22:11:13.144Z,3.10
2018-09-08T22:13:42.130Z,3.40
2018-09-08T22:16:22.873Z,3.30
2018-09-08T22:18:51.404Z,3.87
2018-09-08T22:21:20.177Z,4.07
2018-09-08T22:23:48.676Z,3.80
2018-09-08T22:26:20.908Z,3.93
2018-09-08T22:28:50.271Z,4.20
2018-09-08T22:31:22.882Z,4.03
2018-09-08T22:33:51.838Z,3.97
2018-09-08T22:36:24.788Z,3.83
2018-09-08T22:38:53.767Z,3.67
2018-09-08T22:41:26.757Z,4.50
2018-09-08T22:43:55.575Z,4.60
2018-09-08T22:46:28.064Z,4.63
2018-09-08T22:48:57.220Z,4.97
2018-09-08T22:51:31.152Z,5.33
2018-09-08T22:53:59.718Z,5.07
2018-09-08T22:56:30.191Z,4.90
2018-09-08T22:59:02.419Z,4.53
2018-09-08T23:01:31.994Z,4.57
2018-09-08T23:04:02.485Z,5.07
2018-09-08T23:06:31.261Z,5.23
2018-09-08T23:09:00.206Z,5.07
2018-09-08T23:11:28.721Z,5.87
2018-09-08T23:13:57.950Z,5.70
2018-09-08T23:16:26.912Z,4.90
2018-09-08T23:18:55.874Z,4.17
2018-09-08T23:21:24.703Z,4.20
2018-09-08T23:23:53.660Z,3.73
2018-09-08T23:26:22.165Z,4.13
2018-09-08T23:28:54.389Z,3.83
2018-09-08T23:31:22.913Z,4.10
2018-09-08T23:33:55.558Z,4.07
2018-09-08T23:36:24.321Z,4.40
2018-09-08T23:38:57.802Z,3.87
2018-09-08T23:41:26.739Z,4.10
2018-09-08T23:44:01.239Z,3.97
2018-09-08T23:46:30.174Z,3.83
2018-09-08T23:49:03.638Z,3.77
2018-09-08T23:51:32.869Z,3.90
2018-09-08T23:56:45.139Z,4.27
2018-09-08T23:59:14.113Z,4.07
